createdAt,value
2018-04-06T00:01:14.414Z,99.99
2018-04-06T00:02:14.967Z,99.99
2018-04-06T00:03:15.522Z,99.99
2018-04-06T00:04:16.077Z,99.99
2018-04-06T00:05:16.628Z,99.99
2018-04-06T00:06:17.203Z,99.99
2018-04-06T00:07:17.756Z,99.99
2018-04-06T00:08:18.309Z,99.99
2018-04-06T00:09:18.861Z,99.99
2018-04-06T00:10:19.436Z,99.99
2018-04-06T00:11:19.989Z,99.99
2018-04-06T00:12:20.545Z,99.99
2018-04-06T00:13:21.118Z,99.99
2018-04-06T00:14:21.679Z,99.99
2018-04-06T00:15:22.245Z,99.99
2018-04-06T00:16:22.799Z,99.99
2018-04-06T00:17:23.351Z,99.99
2018-04-06T00:18:23.906Z,99.99
2018-04-06T00:19:24.458Z,99.99
2018-04-06T00:20:25.011Z,99.99
2018-04-06T00:21:25.564Z,99.99
2018-04-06T00:22:26.120Z,99.99
2018-04-06T00:23:26.668Z,99.99
2018-04-06T00:24:27.223Z,99.99
2018-04-06T00:25:27.795Z,99.99
2018-04-06T00:26:28.350Z,99.99
2018-04-06T00:27:28.902Z,99.99
2018-04-06T00:28:29.477Z,99.99
2018-04-06T00:29:30.031Z,99.99
2018-04-06T00:30:30.582Z,99.99
2018-04-06T00:31:31.117Z,99.99
2018-04-06T00:32:31.658Z,99.99
2018-04-06T00:33:32.202Z,99.99
2018-04-06T00:34:32.746Z,99.99
2018-04-06T00:35:33.286Z,99.99
2018-04-06T00:36:33.832Z,99.99
2018-04-06T00:37:34.370Z,99.99
2018-04-06T00:38:34.905Z,99.99
2018-04-06T00:39:35.455Z,99.99
2018-04-06T00:40:35.991Z,99.99
2018-04-06T00:41:36.539Z,99.99
2018-04-06T00:42:37.076Z,99.99
2018-04-06T00:43:37.615Z,99.99
2018-04-06T00:44:38.147Z,99.99
2018-04-06T00:45:38.693Z,99.99
2018-04-06T00:46:39.231Z,99.99
2018-04-06T00:47:39.779Z,99.99
2018-04-06T00:48:40.314Z,99.99
2018-04-06T00:49:40.865Z,99.99
2018-04-06T00:50:41.403Z,99.99
2018-04-06T00:51:41.944Z,99.99
2018-04-06T00:52:42.490Z,99.99
2018-04-06T00:53:43.032Z,99.99
2018-04-06T00:54:43.573Z,99.99
2018-04-06T00:55:44.110Z,99.99
2018-04-06T00:56:44.652Z,99.99
2018-04-06T00:57:45.192Z,99.99
2018-04-06T00:58:45.735Z,99.99
2018-04-06T00:59:46.270Z,99.99
2018-04-06T01:00:46.816Z,99.99
2018-04-06T01:01:47.355Z,99.99
2018-04-06T01:02:47.901Z,99.99
2018-04-06T01:03:48.440Z,99.99
2018-04-06T01:04:48.983Z,99.99
2018-04-06T01:05:49.520Z,99.99
2018-04-06T01:06:50.137Z,99.99
2018-04-06T01:07:50.669Z,99.99
2018-04-06T01:08:51.220Z,99.99
2018-04-06T01:09:51.751Z,99.99
2018-04-06T01:10:52.290Z,99.99
2018-04-06T01:11:52.835Z,99.99
2018-04-06T01:12:53.376Z,99.99
2018-04-06T01:13:53.922Z,99.99
2018-04-06T01:14:54.459Z,99.99
2018-04-06T01:15:55.002Z,99.99
2018-04-06T01:16:55.541Z,99.99
2018-04-06T01:17:56.082Z,99.99
2018-04-06T01:18:56.620Z,99.99
2018-04-06T01:19:57.165Z,99.99
2018-04-06T01:20:57.714Z,99.99
2018-04-06T01:21:58.253Z,99.99
2018-04-06T01:22:58.790Z,99.99
2018-04-06T01:23:59.334Z,99.99
2018-04-06T01:24:59.874Z,99.99
2018-04-06T01:26:00.420Z,99.99
2018-04-06T01:27:00.956Z,99.99
2018-04-06T01:28:01.491Z,99.99
2018-04-06T01:29:02.037Z,99.99
2018-04-06T01:30:02.578Z,99.99
2018-04-06T01:31:03.113Z,99.99
2018-04-06T01:32:03.649Z,99.99
2018-04-06T01:33:04.189Z,99.99
2018-04-06T01:34:04.737Z,99.99
2018-04-06T01:35:05.280Z,99.99
2018-04-06T01:36:05.824Z,99.99
2018-04-06T01:37:06.371Z,99.99
2018-04-06T01:38:06.910Z,99.99
2018-04-06T01:39:07.450Z,99.99
2018-04-06T01:40:07.991Z,99.99
2018-04-06T01:41:08.532Z,99.99
2018-04-06T01:42:09.073Z,99.99
2018-04-06T01:43:09.611Z,99.99
2018-04-06T01:44:10.158Z,99.99
2018-04-06T01:45:10.696Z,99.99
2018-04-06T01:46:11.231Z,99.99
2018-04-06T01:47:11.778Z,99.99
2018-04-06T01:48:12.322Z,99.99
2018-04-06T01:49:12.866Z,99.99
2018-04-06T01:50:13.404Z,99.99
2018-04-06T01:51:13.947Z,99.99
2018-04-06T01:52:14.488Z,99.99
2018-04-06T01:53:15.042Z,99.99
2018-04-06T01:54:15.571Z,99.99
2018-04-06T01:55:16.110Z,99.99
2018-04-06T01:56:16.652Z,99.99
2018-04-06T01:57:17.193Z,99.99
2018-04-06T01:58:17.732Z,99.99
2018-04-06T01:59:18.275Z,99.99
2018-04-06T02:00:18.817Z,99.99
2018-04-06T02:01:19.358Z,99.99
2018-04-06T02:02:19.899Z,99.99
2018-04-06T02:03:20.440Z,99.99
2018-04-06T02:04:20.984Z,99.99
2018-04-06T02:05:21.516Z,99.99
2018-04-06T02:06:22.061Z,99.99
2018-04-06T02:07:22.599Z,99.99
2018-04-06T02:08:23.142Z,99.99
2018-04-06T02:09:23.677Z,99.99
2018-04-06T02:10:24.218Z,99.99
2018-04-06T02:11:24.757Z,99.99
2018-04-06T02:12:25.293Z,99.99
2018-04-06T02:13:25.833Z,99.99
2018-04-06T02:14:26.371Z,99.99
2018-04-06T02:15:26.917Z,99.99
2018-04-06T02:16:27.460Z,99.99
2018-04-06T02:17:28.006Z,99.99
2018-04-06T02:18:28.543Z,99.99
2018-04-06T02:19:29.084Z,99.99
2018-04-06T02:20:29.623Z,99.99
2018-04-06T02:21:30.166Z,99.99
2018-04-06T02:22:30.705Z,99.99
2018-04-06T02:23:31.243Z,99.99
2018-04-06T02:24:31.814Z,99.99
2018-04-06T02:25:32.325Z,99.99
2018-04-06T02:26:32.877Z,99.99
2018-04-06T02:27:33.408Z,99.99
2018-04-06T02:28:33.951Z,99.99
2018-04-06T02:29:34.487Z,99.99
2018-04-06T02:30:35.026Z,99.99
2018-04-06T02:31:35.571Z,99.99
2018-04-06T02:32:36.115Z,99.99
2018-04-06T02:33:36.665Z,99.99
2018-04-06T02:34:37.197Z,99.99
2018-04-06T02:35:37.742Z,99.99
2018-04-06T02:36:38.283Z,99.99
2018-04-06T02:37:38.816Z,99.99
2018-04-06T02:38:39.369Z,99.99
2018-04-06T02:39:39.896Z,99.99
2018-04-06T02:40:40.442Z,99.99
2018-04-06T02:41:40.973Z,99.99
2018-04-06T02:42:41.516Z,99.99
2018-04-06T02:43:42.127Z,99.99
2018-04-06T02:44:42.594Z,99.99
2018-04-06T02:45:43.127Z,99.99
2018-04-06T02:46:43.671Z,99.99
2018-04-06T02:47:44.217Z,99.99
2018-04-06T02:48:44.752Z,99.99
2018-04-06T02:49:45.293Z,99.99
2018-04-06T02:50:45.840Z,99.99
2018-04-06T02:51:46.375Z,99.99
2018-04-06T02:52:46.920Z,99.99
2018-04-06T02:53:47.461Z,99.99
2018-04-06T02:54:48.008Z,99.99
2018-04-06T02:55:48.546Z,99.99
2018-04-06T02:56:49.081Z,99.99
2018-04-06T02:57:49.626Z,99.99
2018-04-06T02:58:50.159Z,99.99
2018-04-06T02:59:50.694Z,99.99
2018-04-06T03:00:51.234Z,99.99
2018-04-06T03:01:51.784Z,99.99
2018-04-06T03:02:52.315Z,99.99
2018-04-06T03:03:52.855Z,99.99
2018-04-06T03:04:53.395Z,99.99
2018-04-06T03:05:53.936Z,99.99
2018-04-06T03:06:54.477Z,99.99
2018-04-06T03:07:55.015Z,99.99
2018-04-06T03:08:55.559Z,99.99
2018-04-06T03:09:56.098Z,99.99
2018-04-06T03:10:56.645Z,99.99
2018-04-06T03:11:57.187Z,99.99
2018-04-06T03:12:57.728Z,99.99
2018-04-06T03:13:58.272Z,99.99
2018-04-06T03:14:58.833Z,99.99
2018-04-06T03:15:59.357Z,99.99
2018-04-06T03:16:59.893Z,99.99
2018-04-06T03:18:00.430Z,99.99
2018-04-06T03:19:00.969Z,99.99
2018-04-06T03:20:01.512Z,99.99
2018-04-06T03:21:02.055Z,99.99
2018-04-06T03:22:02.602Z,99.99
2018-04-06T03:23:03.142Z,99.99
2018-04-06T03:24:03.677Z,99.99
2018-04-06T03:25:04.219Z,99.99
2018-04-06T03:26:04.760Z,99.99
2018-04-06T03:27:05.304Z,99.99
2018-04-06T03:28:05.888Z,99.99
2018-04-06T03:29:06.386Z,99.99
2018-04-06T03:30:06.923Z,99.99
2018-04-06T03:31:07.457Z,99.99
2018-04-06T03:32:07.996Z,99.99
2018-04-06T03:33:08.539Z,99.99
2018-04-06T03:34:09.077Z,99.99
2018-04-06T03:35:09.616Z,99.99
2018-04-06T03:36:10.163Z,99.99
2018-04-06T03:37:10.703Z,99.99
2018-04-06T03:38:11.249Z,99.99
2018-04-06T03:39:11.785Z,99.99
2018-04-06T03:40:12.326Z,99.99
2018-04-06T03:41:12.871Z,99.99
2018-04-06T03:42:13.412Z,99.99
2018-04-06T03:43:13.959Z,99.99
2018-04-06T03:44:14.500Z,99.99
2018-04-06T03:45:15.033Z,99.99
2018-04-06T03:46:15.571Z,99.99
2018-04-06T03:47:16.105Z,99.99
2018-04-06T03:48:16.640Z,99.99
2018-04-06T03:49:17.176Z,99.99
2018-04-06T03:50:17.714Z,99.99
2018-04-06T03:51:18.257Z,99.99
2018-04-06T03:52:18.800Z,99.99
2018-04-06T03:53:19.345Z,99.99
2018-04-06T03:54:19.887Z,99.99
2018-04-06T03:55:20.422Z,99.99
2018-04-06T03:56:20.959Z,99.99
2018-04-06T03:57:21.500Z,99.99
2018-04-06T03:58:22.045Z,99.99
2018-04-06T03:59:22.589Z,99.99
2018-04-06T04:00:23.134Z,99.99
2018-04-06T04:01:23.683Z,99.99
2018-04-06T04:02:24.226Z,99.99
2018-04-06T04:03:24.759Z,99.99
2018-04-06T04:04:25.311Z,99.99
2018-04-06T04:05:25.843Z,99.99
2018-04-06T04:06:26.378Z,99.99
2018-04-06T04:07:26.918Z,99.99
2018-04-06T04:08:27.451Z,99.99
2018-04-06T04:09:27.992Z,99.99
2018-04-06T04:10:28.532Z,99.99
2018-04-06T04:11:29.068Z,99.99
2018-04-06T04:12:29.612Z,99.99
2018-04-06T04:13:30.149Z,99.99
2018-04-06T04:14:30.690Z,99.99
2018-04-06T04:15:31.234Z,99.99
2018-04-06T04:16:31.772Z,99.99
2018-04-06T04:17:32.323Z,99.99
2018-04-06T04:18:32.864Z,99.99
2018-04-06T04:19:33.402Z,99.99
2018-04-06T04:20:33.943Z,99.99
2018-04-06T04:21:34.478Z,99.99
2018-04-06T04:22:35.027Z,99.99
2018-04-06T04:23:35.566Z,99.99
2018-04-06T04:24:36.109Z,99.99
2018-04-06T04:25:36.650Z,99.99
2018-04-06T04:26:37.191Z,99.99
2018-04-06T04:27:37.736Z,99.99
2018-04-06T04:28:38.276Z,99.99
2018-04-06T04:29:38.817Z,99.99
2018-04-06T04:30:39.356Z,99.99
2018-04-06T04:31:39.896Z,99.99
2018-04-06T04:32:40.430Z,99.99
2018-04-06T04:33:40.975Z,99.99
2018-04-06T04:34:41.520Z,99.99
2018-04-06T04:35:42.063Z,99.99
2018-04-06T04:36:42.602Z,99.99
2018-04-06T04:37:43.142Z,99.99
2018-04-06T04:38:43.688Z,99.99
2018-04-06T04:39:44.269Z,99.99
2018-04-06T04:40:44.836Z,99.99
2018-04-06T04:41:45.408Z,99.99
2018-04-06T04:42:45.965Z,99.99
2018-04-06T04:43:46.502Z,99.99
2018-04-06T04:44:47.045Z,99.99
2018-04-06T04:45:47.588Z,99.99
2018-04-06T04:46:48.130Z,99.99
2018-04-06T04:47:48.673Z,99.99
2018-04-06T04:48:49.213Z,99.99
2018-04-06T04:49:49.753Z,99.99
2018-04-06T04:50:50.291Z,99.99
2018-04-06T04:51:50.833Z,99.99
2018-04-06T04:52:51.369Z,99.99
2018-04-06T04:53:51.914Z,99.99
2018-04-06T04:54:52.460Z,99.99
2018-04-06T04:55:53.004Z,99.99
2018-04-06T04:56:53.547Z,99.99
2018-04-06T04:57:54.088Z,99.99
2018-04-06T04:58:54.629Z,99.99
2018-04-06T04:59:55.174Z,99.99
2018-04-06T05:00:55.791Z,99.99
2018-04-06T05:01:56.320Z,99.99
2018-04-06T05:02:56.831Z,99.99
2018-04-06T05:03:57.421Z,99.99
2018-04-06T05:04:58.123Z,99.99
2018-04-06T05:05:58.670Z,99.99
2018-04-06T05:06:59.219Z,99.99
2018-04-06T05:07:59.758Z,99.99
2018-04-06T05:09:00.300Z,99.99
2018-04-06T05:10:00.844Z,99.99
2018-04-06T05:11:01.392Z,99.99
2018-04-06T05:12:01.939Z,99.99
2018-04-06T05:13:02.482Z,99.99
2018-04-06T05:14:03.065Z,99.99
2018-04-06T05:15:03.570Z,99.99
2018-04-06T05:16:04.117Z,99.99
2018-04-06T05:17:04.661Z,99.99
2018-04-06T05:18:05.207Z,99.99
2018-04-06T05:19:05.747Z,99.99
2018-04-06T05:20:06.303Z,99.99
2018-04-06T05:21:06.845Z,99.99
2018-04-06T05:22:07.382Z,99.99
2018-04-06T05:23:07.925Z,99.99
2018-04-06T05:24:08.472Z,99.99
2018-04-06T05:25:09.016Z,99.99
2018-04-06T05:26:09.555Z,99.99
2018-04-06T05:27:10.100Z,99.99
2018-04-06T05:28:10.647Z,99.99
2018-04-06T05:29:11.200Z,99.99
2018-04-06T05:30:11.738Z,99.99
2018-04-06T05:31:12.284Z,99.99
2018-04-06T05:32:12.833Z,99.99
2018-04-06T05:33:13.370Z,99.99
2018-04-06T05:34:13.918Z,99.99
2018-04-06T05:35:14.469Z,99.99
2018-04-06T05:36:15.009Z,99.99
2018-04-06T05:37:15.553Z,99.99
2018-04-06T05:38:16.101Z,99.99
2018-04-06T05:39:16.671Z,99.99
2018-04-06T05:40:17.199Z,99.99
2018-04-06T05:41:17.749Z,99.99
2018-04-06T05:42:18.297Z,99.99
2018-04-06T05:43:18.848Z,99.99
2018-04-06T05:44:19.397Z,99.99
2018-04-06T05:45:19.941Z,99.99
2018-04-06T05:46:20.495Z,99.99
2018-04-06T05:47:21.038Z,99.99
2018-04-06T05:48:21.590Z,99.99
2018-04-06T05:49:22.144Z,99.99
2018-04-06T05:50:22.694Z,99.99
2018-04-06T05:51:23.243Z,99.99
2018-04-06T05:52:23.802Z,99.99
2018-04-06T05:53:24.353Z,99.99
2018-04-06T05:54:24.900Z,99.99
2018-04-06T05:55:25.450Z,99.44
2018-04-06T05:56:26.002Z,97.55
2018-04-06T05:57:26.554Z,97.64
2018-04-06T05:58:27.108Z,96.03
2018-04-06T05:59:27.657Z,94.46
2018-04-06T06:00:28.288Z,94.56
2018-04-06T06:01:28.858Z,95.12
2018-04-06T06:02:29.397Z,93.60
2018-04-06T06:03:29.993Z,94.37
2018-04-06T06:04:30.525Z,95.89
2018-04-06T06:05:31.100Z,96.26
2018-04-06T06:06:31.636Z,96.26
2018-04-06T06:07:32.191Z,95.41
2018-04-06T06:08:32.741Z,93.89
2018-04-06T06:09:33.285Z,93.99
2018-04-06T06:10:33.842Z,92.85
2018-04-06T06:11:34.409Z,93.13
2018-04-06T06:12:34.954Z,92.80
2018-04-06T06:13:35.506Z,92.04
2018-04-06T06:14:36.060Z,91.66
2018-04-06T06:15:36.628Z,90.23
2018-04-06T06:16:37.175Z,90.90
2018-04-06T06:17:37.725Z,90.52
2018-04-06T06:18:38.281Z,90.33
2018-04-06T06:19:38.844Z,89.28
2018-04-06T06:20:39.397Z,89.14
2018-04-06T06:21:39.951Z,87.95
2018-04-06T06:22:40.520Z,88.43
2018-04-06T06:23:41.082Z,88.71
2018-04-06T06:24:41.640Z,90.33
2018-04-06T06:25:42.200Z,90.33
2018-04-06T06:26:42.758Z,90.00
2018-04-06T06:27:43.308Z,89.90
2018-04-06T06:28:43.881Z,87.71
2018-04-06T06:29:44.408Z,87.43
2018-04-06T06:30:44.978Z,87.67
2018-04-06T06:31:45.532Z,87.86
2018-04-06T06:32:46.084Z,89.19
2018-04-06T06:33:46.638Z,90.80
2018-04-06T06:34:47.200Z,90.61
2018-04-06T06:35:47.760Z,90.71
2018-04-06T06:36:48.354Z,90.23
2018-04-06T06:37:48.873Z,90.23
2018-04-06T06:38:49.442Z,90.94
2018-04-06T06:39:50.004Z,88.47
2018-04-06T06:40:50.565Z,87.81
2018-04-06T06:41:51.124Z,87.52
2018-04-06T06:42:51.725Z,86.80
2018-04-06T06:43:52.243Z,87.09
2018-04-06T06:44:52.803Z,87.19
2018-04-06T06:45:53.362Z,85.76
2018-04-06T06:46:53.928Z,84.52
2018-04-06T06:47:54.478Z,84.52
2018-04-06T06:48:55.042Z,84.85
2018-04-06T06:49:55.604Z,84.56
2018-04-06T06:50:56.181Z,84.13
2018-04-06T06:51:56.717Z,83.56
2018-04-06T06:52:57.275Z,81.95
2018-04-06T06:53:57.843Z,82.04
2018-04-06T06:54:58.400Z,81.66
2018-04-06T06:55:58.967Z,80.76
2018-04-06T06:56:59.523Z,81.43
2018-04-06T06:58:00.091Z,82.23
2018-04-06T06:59:00.651Z,80.80
2018-04-06T07:00:01.213Z,80.80
2018-04-06T07:01:01.783Z,80.23
2018-04-06T07:02:02.345Z,80.57
2018-04-06T07:03:02.903Z,80.86
2018-04-06T07:04:03.462Z,81.71
2018-04-06T07:05:04.031Z,81.24
2018-04-06T07:06:04.591Z,81.43
2018-04-06T07:07:05.155Z,81.52
2018-04-06T07:08:05.711Z,81.62
2018-04-06T07:09:06.273Z,81.85
2018-04-06T07:10:06.829Z,81.28
2018-04-06T07:11:07.390Z,80.42
2018-04-06T07:12:08.044Z,80.61
2018-04-06T07:13:08.602Z,80.42
2018-04-06T07:14:09.220Z,80.04
2018-04-06T07:15:09.779Z,79.47
2018-04-06T07:16:10.338Z,79.28
2018-04-06T07:17:10.894Z,79.41
2018-04-06T07:18:11.452Z,78.65
2018-04-06T07:19:12.016Z,77.95
2018-04-06T07:20:12.572Z,78.19
2018-04-06T07:21:13.133Z,80.10
2018-04-06T07:22:13.696Z,80.52
2018-04-06T07:23:14.259Z,80.57
2018-04-06T07:24:14.817Z,80.99
2018-04-06T07:25:15.380Z,80.13
2018-04-06T07:26:15.944Z,80.42
2018-04-06T07:27:16.508Z,81.03
2018-04-06T07:28:17.079Z,80.08
2018-04-06T07:29:17.636Z,78.90
2018-04-06T07:30:18.202Z,79.38
2018-04-06T07:31:18.765Z,80.23
2018-04-06T07:32:19.330Z,80.99
2018-04-06T07:33:19.901Z,80.13
2018-04-06T07:34:20.461Z,79.57
2018-04-06T07:35:21.023Z,79.52
2018-04-06T07:36:21.584Z,80.10
2018-04-06T07:37:22.152Z,80.76
2018-04-06T07:38:22.707Z,80.71
2018-04-06T07:39:23.270Z,80.52
2018-04-06T07:40:23.834Z,79.85
2018-04-06T07:41:24.393Z,79.47
2018-04-06T07:42:24.953Z,79.28
2018-04-06T07:43:25.509Z,80.04
2018-04-06T07:44:26.133Z,81.18
2018-04-06T07:45:26.639Z,81.09
2018-04-06T07:46:27.199Z,80.18
2018-04-06T07:47:27.762Z,78.75
2018-04-06T07:48:28.335Z,78.65
2018-04-06T07:49:28.904Z,78.75
2018-04-06T07:50:29.501Z,78.65
2018-04-06T07:51:30.042Z,78.75
2018-04-06T07:52:30.602Z,79.22
2018-04-06T07:53:31.161Z,78.85
2018-04-06T07:54:31.725Z,78.37
2018-04-06T07:55:32.281Z,78.37
2018-04-06T07:56:32.846Z,78.41
2018-04-06T07:57:33.413Z,77.61
2018-04-06T07:58:33.983Z,77.55
2018-04-06T07:59:34.539Z,77.64
2018-04-06T08:00:35.109Z,78.17
2018-04-06T08:01:35.660Z,78.46
2018-04-06T08:02:36.220Z,78.17
2018-04-06T08:03:36.792Z,78.17
2018-04-06T08:04:37.340Z,78.08
2018-04-06T08:05:37.926Z,78.85
2018-04-06T08:06:38.465Z,78.31
2018-04-06T08:07:39.025Z,77.26
2018-04-06T08:08:39.593Z,76.79
2018-04-06T08:09:40.148Z,75.89
2018-04-06T08:10:40.706Z,76.27
2018-04-06T08:11:41.269Z,76.56
2018-04-06T08:12:42.030Z,76.84
2018-04-06T08:13:42.596Z,76.31
2018-04-06T08:14:43.163Z,76.12
2018-04-06T08:15:43.726Z,75.96
2018-04-06T08:16:44.287Z,75.59
2018-04-06T08:17:44.857Z,75.68
2018-04-06T08:18:45.426Z,75.01
2018-04-06T08:19:45.999Z,75.59
2018-04-06T08:20:46.565Z,74.63
2018-04-06T08:21:47.138Z,74.79
2018-04-06T08:22:47.699Z,75.01
2018-04-06T08:23:48.260Z,74.46
2018-04-06T08:24:48.827Z,76.21
2018-04-06T08:25:49.390Z,76.12
2018-04-06T08:26:49.955Z,75.55
2018-04-06T08:27:50.512Z,75.68
2018-04-06T08:28:51.079Z,76.01
2018-04-06T08:29:51.648Z,75.01
2018-04-06T08:30:52.204Z,74.96
2018-04-06T08:31:52.816Z,75.05
2018-04-06T08:32:53.360Z,74.25
2018-04-06T08:33:53.906Z,74.79
2018-04-06T08:34:54.475Z,75.59
2018-04-06T08:35:55.037Z,75.01
2018-04-06T08:36:55.590Z,74.54
2018-04-06T08:37:56.151Z,73.55
2018-04-06T08:38:56.724Z,73.49
2018-04-06T08:39:57.377Z,74.44
2018-04-06T08:40:57.849Z,73.39
2018-04-06T08:41:58.409Z,73.68
2018-04-06T08:42:58.967Z,73.58
2018-04-06T08:43:59.543Z,74.67
2018-04-06T08:45:00.112Z,73.14
2018-04-06T08:46:00.678Z,72.28
2018-04-06T08:47:01.239Z,72.48
2018-04-06T08:48:01.813Z,73.52
2018-04-06T08:49:02.369Z,72.76
2018-04-06T08:50:02.927Z,72.63
2018-04-06T08:51:03.496Z,73.11
2018-04-06T08:52:04.054Z,73.49
2018-04-06T08:53:04.621Z,73.43
2018-04-06T08:54:05.186Z,72.53
2018-04-06T08:55:05.781Z,73.11
2018-04-06T08:56:06.313Z,74.16
2018-04-06T08:58:08.439Z,74.06
2018-04-06T08:59:08.997Z,74.10
2018-04-06T09:00:10.560Z,73.87
2018-04-06T09:01:11.122Z,73.49
2018-04-06T09:02:11.688Z,72.53
2018-04-06T09:03:12.258Z,72.63
2018-04-06T09:04:12.819Z,72.82
2018-04-06T09:05:13.385Z,74.29
2018-04-06T09:06:13.955Z,72.89
2018-04-06T09:07:14.519Z,71.33
2018-04-06T09:08:15.090Z,71.18
2018-04-06T09:09:15.647Z,70.32
2018-04-06T09:10:16.213Z,70.51
2018-04-06T09:11:16.775Z,71.75
2018-04-06T09:12:17.342Z,70.83
2018-04-06T09:13:17.906Z,70.36
2018-04-06T09:14:18.475Z,69.46
2018-04-06T09:15:19.031Z,68.92
2018-04-06T09:16:19.607Z,68.03
2018-04-06T09:17:20.163Z,68.70
2018-04-06T09:18:20.735Z,69.68
2018-04-06T09:19:21.292Z,69.97
2018-04-06T09:20:21.853Z,68.82
2018-04-06T09:21:22.418Z,68.86
2018-04-06T09:22:22.979Z,68.00
2018-04-06T09:23:23.544Z,67.97
2018-04-06T09:24:24.104Z,67.97
2018-04-06T09:25:24.667Z,67.52
2018-04-06T09:26:25.222Z,67.24
2018-04-06T09:27:25.848Z,67.71
2018-04-06T09:28:26.403Z,67.91
2018-04-06T09:29:26.970Z,66.95
2018-04-06T09:30:27.536Z,67.30
2018-04-06T09:31:28.097Z,67.52
2018-04-06T09:32:28.657Z,67.24
2018-04-06T09:33:29.216Z,67.21
2018-04-06T09:34:29.804Z,66.92
2018-04-06T09:35:30.363Z,66.53
2018-04-06T09:36:31.030Z,66.72
2018-04-06T09:37:31.840Z,66.72
2018-04-06T09:38:32.394Z,66.72
2018-04-06T09:39:32.951Z,65.87
2018-04-06T09:40:33.518Z,67.68
2018-04-06T09:41:34.128Z,67.11
2018-04-06T09:42:34.644Z,66.25
2018-04-06T09:43:35.216Z,66.15
2018-04-06T09:44:35.763Z,66.44
2018-04-06T09:45:36.323Z,67.49
2018-04-06T09:46:36.905Z,68.35
2018-04-06T09:47:37.467Z,66.95
2018-04-06T09:48:38.029Z,65.67
2018-04-06T09:49:38.625Z,65.71
2018-04-06T09:50:39.164Z,64.47
2018-04-06T09:51:39.729Z,63.51
2018-04-06T09:52:40.353Z,64.69
2018-04-06T09:53:40.880Z,64.94
2018-04-06T09:54:41.446Z,63.51
2018-04-06T09:55:41.999Z,63.60
2018-04-06T09:56:42.568Z,62.91
2018-04-06T09:57:43.134Z,63.42
2018-04-06T09:58:43.705Z,63.39
2018-04-06T09:59:44.284Z,63.89
2018-04-06T10:00:44.823Z,64.47
2018-04-06T10:01:45.391Z,63.80
2018-04-06T10:02:45.972Z,62.81
2018-04-06T10:03:46.532Z,62.62
2018-04-06T10:04:47.086Z,62.52
2018-04-06T10:05:47.655Z,62.55
2018-04-06T10:06:48.218Z,61.22
2018-04-06T10:07:48.800Z,61.69
2018-04-06T10:08:49.366Z,61.22
2018-04-06T10:09:49.954Z,61.03
2018-04-06T10:10:50.542Z,61.16
2018-04-06T10:11:51.099Z,59.72
2018-04-06T10:12:51.645Z,59.53
2018-04-06T10:13:52.212Z,59.59
2018-04-06T10:14:52.772Z,60.55
2018-04-06T10:15:53.338Z,60.61
2018-04-06T10:16:53.898Z,61.22
2018-04-06T10:17:54.464Z,62.37
2018-04-06T10:18:55.077Z,61.63
2018-04-06T10:19:55.612Z,61.54
2018-04-06T10:20:56.181Z,61.25
2018-04-06T10:21:56.777Z,62.11
2018-04-06T10:22:57.328Z,62.40
2018-04-06T10:23:57.898Z,63.26
2018-04-06T10:24:58.458Z,63.54
2018-04-06T10:25:59.025Z,63.54
2018-04-06T10:26:59.610Z,62.21
2018-04-06T10:28:00.189Z,63.64
2018-04-06T10:29:00.741Z,63.54
2018-04-06T10:30:01.302Z,63.32
2018-04-06T10:31:01.870Z,62.75
2018-04-06T10:32:02.432Z,62.97
2018-04-06T10:33:02.995Z,62.49
2018-04-06T10:34:03.558Z,62.24
2018-04-06T10:35:04.232Z,62.01
2018-04-06T10:36:04.801Z,62.33
2018-04-06T10:37:05.367Z,61.38
2018-04-06T10:38:05.949Z,60.71
2018-04-06T10:39:06.503Z,61.38
2018-04-06T10:40:07.067Z,61.69
2018-04-06T10:41:07.628Z,62.04
2018-04-06T10:42:08.182Z,62.33
2018-04-06T10:43:08.751Z,60.87
2018-04-06T10:44:09.311Z,61.66
2018-04-06T10:45:09.868Z,62.33
2018-04-06T10:46:10.431Z,62.04
2018-04-06T10:47:11.095Z,60.90
2018-04-06T10:48:11.639Z,61.38
2018-04-06T10:49:12.204Z,63.19
2018-04-06T10:50:12.757Z,63.76
2018-04-06T10:51:13.377Z,63.64
2018-04-06T10:52:13.937Z,64.40
2018-04-06T10:53:14.504Z,63.86
2018-04-06T10:54:15.067Z,63.16
2018-04-06T10:55:15.635Z,62.71
2018-04-06T10:56:16.206Z,61.92
2018-04-06T10:57:16.757Z,63.26
2018-04-06T10:58:17.318Z,62.78
2018-04-06T10:59:17.883Z,61.92
2018-04-06T11:00:18.453Z,62.40
2018-04-06T11:01:19.009Z,63.00
2018-04-06T11:02:19.574Z,62.90
2018-04-06T11:03:20.133Z,63.32
2018-04-06T11:04:20.698Z,62.52
2018-04-06T11:05:21.264Z,61.16
2018-04-06T11:06:21.823Z,62.11
2018-04-06T11:07:22.390Z,63.10
2018-04-06T11:08:22.942Z,62.24
2018-04-06T11:09:23.517Z,61.38
2018-04-06T11:10:24.084Z,62.04
2018-04-06T11:11:24.645Z,63.57
2018-04-06T11:12:25.204Z,63.10
2018-04-06T11:13:25.779Z,63.96
2018-04-06T11:14:26.336Z,64.25
2018-04-06T11:15:26.903Z,62.84
2018-04-06T11:16:27.460Z,62.46
2018-04-06T11:17:28.016Z,62.27
2018-04-06T11:18:28.580Z,62.08
2018-04-06T11:19:29.137Z,62.46
2018-04-06T11:20:29.700Z,61.79
2018-04-06T11:21:30.264Z,62.33
2018-04-06T11:22:30.830Z,61.38
2018-04-06T11:23:31.391Z,62.62
2018-04-06T11:24:31.953Z,63.32
2018-04-06T11:25:32.518Z,63.60
2018-04-06T11:26:33.078Z,62.81
2018-04-06T11:27:33.635Z,61.76
2018-04-06T11:28:34.195Z,62.90
2018-04-06T11:29:34.758Z,62.24
2018-04-06T11:30:35.320Z,62.84
2018-04-06T11:31:35.883Z,61.95
2018-04-06T11:32:36.442Z,62.65
2018-04-06T11:33:37.018Z,61.41
2018-04-06T11:34:37.576Z,60.55
2018-04-06T11:35:38.139Z,60.74
2018-04-06T11:36:38.700Z,60.74
2018-04-06T11:37:39.269Z,61.12
2018-04-06T11:38:39.831Z,60.67
2018-04-06T11:39:40.383Z,60.67
2018-04-06T11:40:40.939Z,61.28
2018-04-06T11:41:41.499Z,59.33
2018-04-06T11:42:42.060Z,58.86
2018-04-06T11:43:42.620Z,59.91
2018-04-06T11:44:43.174Z,59.05
2018-04-06T11:45:43.734Z,60.77
2018-04-06T11:46:44.293Z,60.00
2018-04-06T11:47:44.874Z,58.37
2018-04-06T11:48:45.424Z,58.47
2018-04-06T11:49:46.053Z,58.66
2018-04-06T11:50:46.600Z,59.27
2018-04-06T11:51:47.150Z,57.90
2018-04-06T11:52:47.712Z,57.99
2018-04-06T11:53:48.282Z,57.42
2018-04-06T11:54:48.848Z,57.04
2018-04-06T11:55:49.424Z,57.35
2018-04-06T11:56:50.057Z,57.35
2018-04-06T11:57:50.550Z,57.45
2018-04-06T11:58:51.208Z,56.75
2018-04-06T11:59:51.748Z,56.46
2018-04-06T12:00:52.338Z,56.30
2018-04-06T12:01:52.970Z,55.15
2018-04-06T12:02:53.588Z,55.46
2018-04-06T12:03:54.105Z,55.24
2018-04-06T12:04:54.700Z,55.53
2018-04-06T12:05:55.272Z,56.39
2018-04-06T12:06:55.833Z,56.87
2018-04-06T12:07:56.455Z,56.30
2018-04-06T12:08:56.938Z,56.01
2018-04-06T12:09:57.543Z,55.73
2018-04-06T12:10:58.088Z,55.12
2018-04-06T12:11:58.643Z,55.22
2018-04-06T12:12:59.240Z,55.73
2018-04-06T12:13:59.867Z,57.09
2018-04-06T12:15:00.398Z,56.64
2018-04-06T12:16:00.978Z,54.44
2018-04-06T12:17:01.536Z,53.67
2018-04-06T12:18:02.147Z,53.19
2018-04-06T12:19:02.683Z,52.81
2018-04-06T12:20:03.213Z,54.15
2018-04-06T12:21:03.825Z,53.77
2018-04-06T12:22:04.362Z,53.93
2018-04-06T12:23:04.931Z,53.45
2018-04-06T12:24:05.534Z,53.07
2018-04-06T12:25:06.124Z,53.26
2018-04-06T12:26:06.749Z,53.64
2018-04-06T12:27:07.294Z,52.87
2018-04-06T12:28:07.920Z,53.74
2018-04-06T12:29:08.500Z,54.12
2018-04-06T12:30:09.103Z,54.50
2018-04-06T12:31:09.689Z,54.12
2018-04-06T12:32:10.296Z,53.93
2018-04-06T12:33:10.803Z,54.96
2018-04-06T12:34:11.408Z,53.62
2018-04-06T12:35:11.965Z,53.71
2018-04-06T12:36:12.578Z,54.12
2018-04-06T12:37:13.180Z,54.00
2018-04-06T12:38:13.813Z,53.93
2018-04-06T12:39:14.350Z,53.36
2018-04-06T12:40:14.906Z,54.05
2018-04-06T12:41:15.539Z,52.33
2018-04-06T12:42:16.136Z,52.04
2018-04-06T12:43:16.755Z,51.46
2018-04-06T12:44:17.309Z,50.67
2018-04-06T12:45:17.869Z,51.25
2018-04-06T12:46:18.492Z,52.11
2018-04-06T12:47:19.042Z,52.62
2018-04-06T12:48:19.605Z,52.14
2018-04-06T12:49:20.168Z,52.36
2018-04-06T12:50:20.747Z,50.92
2018-04-06T12:51:21.371Z,50.53
2018-04-06T12:52:21.958Z,51.01
2018-04-06T12:53:22.496Z,52.19
2018-04-06T12:54:23.060Z,51.51
2018-04-06T12:55:23.619Z,50.94
2018-04-06T12:56:24.180Z,50.84
2018-04-06T12:57:24.784Z,49.48
2018-04-06T12:58:25.344Z,49.57
2018-04-06T12:59:25.921Z,49.76
2018-04-06T13:00:26.544Z,50.15
2018-04-06T13:01:27.101Z,50.53